• Join FlightAware (Why Join?)
  • Login
  • US Flag 
01:13AM EST


 

Airport Tracker/Info


-or-


 

Live Flight TrackerFlight Track Log ✈ AAL1326 ✈ 30-Apr-2013 ✈ KORD - KFLL

Flight Track Log - Related Links

Times and Time Zones

All times are in EDT time to prevent confusion due to time zone crossing. See the AAL1326 flight status page for this flight to view local times or setup timezone preferences in your user account.

Time Position Orientation Groundspeed Altitude Reporting Facility
EDT Latitude Longitude Course Direction KTS MPH feet Rate Location/Type
07:00PM 41.9450 -87.9060 222° Southwest 157 181 2,200  Level FlightAware
07:01PM 41.9300 -87.9100 191° South 164 189 3,100 2,160 Climbing FlightAware
07:01PM 41.9000 -87.9060 174° South 214 246 4,200 2,400 Climbing FlightAware
07:02PM 41.8680 -87.9020 175° South 239 275 5,700 3,180 Climbing FlightAware
07:02PM 41.8340 -87.8970 174° South 254 292 7,400 3,480 Climbing FlightAware
07:03PM 41.8030 -87.8910 172° South 261 300 8,900 3,300 Climbing FlightAware
07:03PM 41.7480 -87.8870 177° South 275 316 11,300 2,880 Climbing FlightAware
07:04PM 41.6960 -87.8860 179° South 297 342 13,000 2,460 Climbing FlightAware
07:05PM 41.6360 -87.8840 179° South 330 380 14,600 2,100 Climbing FlightAware
07:05PM 41.5650 -87.8820 179° South 367 422 16,000 2,160 Climbing FlightAware
07:06PM 41.4970 -87.8800 179° South 382 440 17,700 2,460 Climbing FlightAware
07:07PM 41.4170 -87.8780 179° South 394 453 19,500 2,160 Climbing FlightAware
07:08PM 41.3460 -87.8830 183° South 412 474 20,800 2,160 Climbing FlightAware
07:08PM 41.2610 -87.8910 184° South 424 488 22,400 2,280 Climbing FlightAware
07:09PM 41.1700 -87.8900 180° South 430 495 24,100 2,160 Climbing FlightAware
07:10PM 41.0940 -87.8880 179° South 434 499 25,500 1,920 Climbing FlightAware
07:10PM 41.0150 -87.8850 178° South 440 506 26,700 1,560 Climbing FlightAware
07:11PM 40.9460 -87.8830 179° South 449 517 27,500 1,440 Climbing FlightAware
07:12PM 40.8330 -87.8800 179° South 463 533 28,800 1,440 Climbing FlightAware
07:12PM 40.7370 -87.8770 179° South 469 540 29,800 1,620 Climbing FlightAware
07:13PM 40.6510 -87.8740 178° South 465 535 31,100 1,320 Climbing FlightAware
07:14PM 40.5490 -87.8700 178° South 464 534 31,800 1,560 Climbing FlightAware
07:15PM 40.4360 -87.8680 179° South 463 533 33,700 1,860 Climbing FlightAware
07:15PM 40.3510 -87.8650 178° South 462 532 34,600 1,380 Climbing FlightAware
07:16PM 40.2540 -87.8620 179° South 458 527 35,700 1,380 Climbing FlightAware
07:17PM 40.1760 -87.8590 178° South 454 522 36,600 1,320 Climbing FlightAware
07:17PM 40.1090 -87.8560 178° South 451 519 37,300 1,200 Climbing FlightAware
07:18PM 39.9980 -87.8510 178° South 446 513 38,300 900 Climbing FlightAware
07:19PM 39.9120 -87.8460 177° South 449 517 38,800 480 Climbing FlightAware
07:20PM 39.8320 -87.8310 172° South 450 518 39,000 120 Climbing FlightAware
07:20PM 39.7460 -87.7990 164° South 454 522 39,000  Level FlightAware
07:21PM 39.6570 -87.7710 166° South 453 521 39,000  Level FlightAware
07:22PM 39.5700 -87.7430 166° South 444 511 39,000  Level FlightAware
07:22PM 39.5020 -87.7210 166° South 443 510 39,000  Level FlightAware
07:23PM 39.3970 -87.6860 166° South 443 510 39,000  Level FlightAware
07:24PM 39.3190 -87.6610 166° South 443 510 39,000  Level FlightAware
07:25PM 39.2390 -87.6360 166° South 443 510 39,000  Level FlightAware
07:25PM 39.1470 -87.6060 166° South 443 510 39,000  Level FlightAware
07:26PM 39.0680 -87.5810 166° South 443 510 39,000  Level FlightAware
07:27PM 38.9790 -87.5530 166° South 442 509 39,000  Level FlightAware
07:27PM 38.9010 -87.5280 166° South 444 511 39,000  Level FlightAware
07:28PM 38.8210 -87.5030 166° South 446 513 39,000  Level FlightAware
07:29PM 38.7280 -87.4730 166° South 446 513 39,000  Level FlightAware
07:29PM 38.6470 -87.4480 166° South 445 512 39,000  Level FlightAware
07:30PM 38.5720 -87.4240 166° South 439 505 39,000  Level FlightAware
07:31PM 38.4830 -87.3960 166° South 438 504 39,000  Level FlightAware
07:32PM 38.4030 -87.3710 166° South 437 503 39,000  Level FlightAware
07:32PM 38.3120 -87.3430 166° South 436 502 39,000  Level FlightAware
07:33PM 38.2350 -87.3190 166° South 435 501 39,000  Level FlightAware
07:34PM 38.1490 -87.2920 166° South 435 501 39,000  Level FlightAware
07:34PM 38.0700 -87.2680 167° South 434 499 39,000  Level FlightAware
07:35PM 37.9920 -87.2440 166° South 434 499 39,000  Level FlightAware
07:36PM 37.9150 -87.2200 166° South 436 502 39,000  Level FlightAware
07:36PM 37.8240 -87.1920 166° South 437 503 39,000  Level FlightAware
07:37PM 37.7360 -87.1650 166° South 441 507 39,000  Level FlightAware
07:38PM 37.6560 -87.1400 166° South 442 509 39,000  Level FlightAware
07:39PM 37.5770 -87.1160 166° South 444 511 39,000  Level FlightAware
07:39PM 37.4840 -87.0880 167° South 446 513 39,000  Level FlightAware
07:40PM 37.4050 -87.0640 166° South 443 510 39,000  Level FlightAware
07:41PM 37.3170 -87.0370 166° South 439 505 39,000  Level FlightAware
07:41PM 37.2430 -87.0150 167° South 439 505 39,000  Level FlightAware
07:42PM 37.1957 -87.0002 166° South 440 506 39,000  Level FlightAware ADS-B
07:43PM 37.0834 -86.9663 166° South 442 509 39,000  Level FlightAware ADS-B
07:43PM 36.9920 -86.9390 167° South 442 509 39,000  Level FlightAware
07:44PM 36.9545 -86.9276 166° South 442 509 39,000  Level FlightAware ADS-B
07:44PM 36.8750 -86.9038 167° South 441 507 39,000  Level FlightAware ADS-B
07:45PM 36.7979 -86.8808 167° South 439 505 39,000  Level FlightAware ADS-B
07:46PM 36.7372 -86.8628 167° South 438 504 39,000  Level FlightAware ADS-B
07:46PM 36.6737 -86.8438 167° South 437 503 39,000  Level FlightAware ADS-B
07:47PM 36.6078 -86.8240 166° South 437 503 39,000  Level FlightAware ADS-B
07:48PM 36.4980 -86.7920 167° South 434 499 39,000  Level FlightAware
07:48PM 36.4642 -86.7816 166° South 39,000  Level FlightAware ADS-B
07:48PM 36.4568 -86.7793 166° South 435 501 39,000  Level FlightAware ADS-B
07:49PM 36.3300 -86.7420 167° South 436 502 39,000  Level FlightAware
07:50PM 36.2430 -86.7160 166° South 438 504 39,000  Level FlightAware
07:50PM 36.1650 -86.6910 165° South 445 512 39,000  Level FlightAware
07:51PM 36.0994 -86.6501 153° Southeast 468 539 39,000  Level FlightAware ADS-B
07:52PM 36.0303 -86.5859 143° Southeast 470 541 39,000  Level FlightAware ADS-B
07:52PM 35.9653 -86.5255 143° Southeast 472 543 39,000  Level FlightAware ADS-B
07:53PM 35.9103 -86.4743 143° Southeast 471 542 39,000  Level FlightAware ADS-B
07:54PM 35.7940 -86.3660 143° Southeast 472 543 39,000  Level FlightAware
07:54PM 35.7366 -86.3136 143° Southeast 471 542 39,000  Level FlightAware ADS-B
07:55PM 35.6836 -86.2651 143° Southeast 471 542 39,000  Level FlightAware ADS-B
07:55PM 35.6312 -86.2171 143° Southeast 472 543 39,000  Level FlightAware ADS-B
07:56PM 35.5781 -86.1685 143° Southeast 472 543 39,000  Level FlightAware ADS-B
07:56PM 35.5237 -86.1183 143° Southeast 471 542 39,000  Level FlightAware ADS-B
07:57PM 35.4681 -86.0675 143° Southeast 469 540 39,000  Level FlightAware ADS-B
07:58PM 35.4050 -86.0100 143° Southeast 470 541 39,000  Level FlightAware
07:58PM 35.3360 -85.9470 143° Southeast 471 542 39,000  Level FlightAware
07:59PM 35.2866 -85.9026 144° Southeast 473 544 39,000  Level FlightAware ADS-B
07:59PM 35.2375 -85.8582 144° Southeast 472 543 39,000  Level FlightAware ADS-B
08:00PM 35.1837 -85.8095 143° Southeast 472 543 39,000  Level FlightAware ADS-B
08:00PM 35.1281 -85.7592 143° Southeast 475 547 39,000  Level FlightAware ADS-B
08:01PM 35.0706 -85.7071 143° Southeast 477 549 39,000  Level FlightAware ADS-B
08:01PM 35.0156 -85.6573 143° Southeast 479 551 39,000  Level FlightAware ADS-B
08:02PM 34.9619 -85.6089 144° Southeast 480 552 39,000  Level FlightAware ADS-B
08:02PM 34.9070 -85.5597 144° Southeast 480 552 39,000  Level FlightAware ADS-B
08:03PM 34.8527 -85.5111 144° Southeast 480 552 39,000  Level FlightAware ADS-B
08:03PM 34.7954 -85.4600 144° Southeast 478 550 39,000  Level FlightAware ADS-B
08:04PM 34.7363 -85.4072 144° Southeast 478 550 39,000  Level FlightAware ADS-B
08:05PM 34.6748 -85.3524 144° Southeast 478 550 39,000  Level FlightAware ADS-B
08:05PM 34.6129 -85.2976 144° Southeast 478 550 39,000  Level FlightAware ADS-B
08:06PM 34.5545 -85.2458 144° Southeast 479 551 39,000  Level FlightAware ADS-B
08:07PM 34.4235 -85.1294 144° Southeast 478 550 39,000  Level FlightAware ADS-B
08:07PM 34.3678 -85.0799 144° Southeast 479 551 39,000  Level FlightAware ADS-B
08:08PM 34.3120 -85.0308 144° Southeast 480 552 39,000 -300 Level FlightAware ADS-B
08:08PM 34.2536 -84.9795 144° Southeast 475 547 38,700 -900 Descending FlightAware ADS-B
08:09PM 34.2001 -84.9326 144° Southeast 466 536 38,100 -1,020 Descending FlightAware ADS-B
08:09PM 34.1468 -84.8865 144° Southeast 470 541 37,700 -960 Descending FlightAware ADS-B
08:10PM 34.0890 -84.8360 144° Southeast 474 545 37,100 -660 Descending FlightAware ADS-B
08:11PM 34.0321 -84.7860 144° Southeast 479 551 37,000 -120 Descending FlightAware ADS-B
08:11PM 33.9680 -84.7300 144° Southeast 477 549 37,000  Level FlightAware
08:11PM 33.9318 -84.6983 144° Southeast 477 549 37,000  Level FlightAware ADS-B
08:12PM 33.8714 -84.6456 144° Southeast 475 547 37,000  Level FlightAware ADS-B
08:13PM 33.8170 -84.5980 144° Southeast 474 545 37,000  Level FlightAware
08:13PM 33.8002 -84.5837 145° Southeast 475 547 37,000  Level FlightAware ADS-B
08:13PM 33.7456 -84.5365 144° Southeast 473 544 37,000  Level FlightAware ADS-B
08:14PM 33.6648 -84.4667 144° Southeast 471 542 37,000  Level FlightAware ADS-B
08:15PM 33.5804 -84.4147 153° Southeast 453 521 37,000  Level FlightAware ADS-B
08:15PM 33.5164 -84.3878 161° South 450 518 37,000  Level FlightAware ADS-B
08:16PM 33.4406 -84.3562 161° South 448 516 37,000  Level FlightAware ADS-B
08:16PM 33.3790 -84.3306 161° South 448 516 37,000  Level FlightAware ADS-B
08:17PM 33.3202 -84.3061 161° South 445 512 37,000  Level FlightAware ADS-B
08:18PM 33.2560 -84.2800 161° South 443 510 37,000  Level FlightAware
08:18PM 33.1810 -84.2480 160° South 441 507 37,000  Level FlightAware
08:19PM 33.1000 -84.2150 161° South 440 506 37,000  Level FlightAware
08:20PM 32.9330 -84.1460 161° South 439 505 37,000  Level FlightAware
08:21PM 32.8350 -84.1050 161° South 439 505 37,000  Level FlightAware
08:22PM 32.7480 -84.0700 161° South 439 505 37,000  Level FlightAware
08:23PM 32.6200 -84.0170 161° South 442 509 37,000  Level FlightAware
08:24PM 32.5320 -83.9810 161° South 445 512 37,000  Level FlightAware
08:25PM 32.4430 -83.9450 161° South 439 505 37,000  Level FlightAware
08:25PM 32.3730 -83.9160 161° South 440 506 37,000  Level FlightAware
08:26PM 32.3090 -83.8890 160° South 440 506 37,000  Level FlightAware
08:27PM 32.2280 -83.8540 160° South 440 506 37,000  Level FlightAware
08:27PM 32.1630 -83.8260 160° South 440 506 37,000  Level FlightAware
08:28PM 32.0980 -83.7980 160° South 440 506 37,000  Level FlightAware
08:29PM 32.0330 -83.7700 160° South 440 506 37,000  Level FlightAware
08:29PM 31.9680 -83.7420 160° South 440 506 37,000  Level FlightAware
08:30PM 31.8870 -83.7070 160° South 440 506 37,000  Level FlightAware
08:31PM 31.8220 -83.6790 160° South 440 506 37,000  Level FlightAware
08:31PM 31.7570 -83.6510 160° South 440 506 37,000  Level FlightAware
08:32PM 31.6910 -83.6240 161° South 440 506 37,000  Level FlightAware
08:33PM 31.6260 -83.5960 160° South 440 506 37,000  Level FlightAware
08:34PM 31.5450 -83.5610 160° South 440 506 37,000  Level FlightAware
08:34PM 31.4960 -83.5400 160° South 440 506 37,000  Level FlightAware
08:35PM 31.4310 -83.5120 160° South 440 506 37,000  Level FlightAware
08:36PM 31.1464 -83.4242 160° South 445 512 37,000 840 Level Jacksonville Center
08:37PM 31.0319 -83.3800 162° South 445 512 38,500 960 Climbing Jacksonville Center
08:38PM 30.9150 -83.3333 161° South 440 506 39,000 240 Climbing Jacksonville Center
08:39PM 30.8047 -83.2892 161° South 440 506 39,000  Level Jacksonville Center
08:40PM 30.6919 -83.2331 157° South 434 499 39,000  Level Jacksonville Center
08:41PM 30.5794 -83.1772 157° South 434 499 39,000 -60 Level Jacksonville Center
08:42PM 30.4625 -83.1192 157° South 439 505 38,900  Descending Jacksonville Center
08:43PM 30.3500 -83.0633 157° South 439 505 39,000  Climbing Jacksonville Center
08:44PM 30.2353 -83.0056 156° South 439 505 38,900  Descending Jacksonville Center
08:49PM 29.6350 -82.7100 156° South 39,000  Climbing FlightAware
08:49PM 29.5670 -82.6770 157° South 448 516 39,000  Level FlightAware
08:50PM 29.4960 -82.6420 157° South 447 514 39,000  Level FlightAware
08:51PM 29.4230 -82.6060 157° South 441 507 39,000  Level FlightAware
08:51PM 29.3380 -82.5650 157° South 441 507 39,000  Level FlightAware
08:52PM 29.2550 -82.5250 157° South 449 517 39,000  Level FlightAware
08:53PM 29.1670 -82.4810 156° South 450 518 39,000  Level FlightAware
08:54PM 29.0910 -82.4520 162° South 437 503 39,000  Level FlightAware
08:54PM 29.0110 -82.4510 179° South 428 493 39,000  Level FlightAware
08:55PM 28.9220 -82.4560 183° South 427 491 39,000  Level FlightAware
08:56PM 28.8420 -82.4610 183° South 427 491 39,000  Level FlightAware
08:56PM 28.7510 -82.4670 183° South 427 491 39,000  Level FlightAware
08:57PM 28.6750 -82.4710 183° South 427 491 39,000  Level FlightAware
08:58PM 28.5960 -82.4750 183° South 425 489 39,000  Level FlightAware
08:58PM 28.5060 -82.4800 183° South 427 491 39,000  Level FlightAware
08:59PM 28.4260 -82.4850 183° South 431 496 39,000  Level FlightAware
09:00PM 28.3350 -82.4900 183° South 431 496 39,000  Level FlightAware
09:01PM 28.2540 -82.4940 182° South 431 496 39,000  Level FlightAware
09:01PM 28.1780 -82.4990 183° South 431 496 39,000  Level FlightAware
09:02PM 28.0860 -82.5050 183° South 430 495 39,000  Level FlightAware
09:03PM 28.0060 -82.5100 183° South 432 497 39,000  Level FlightAware
09:03PM 27.9160 -82.4970 173° South 451 519 39,000  Level FlightAware
09:04PM 27.8390 -82.4680 162° South 450 518 39,000  Level FlightAware
09:05PM 27.7590 -82.4390 162° South 446 513 39,000  Level FlightAware
09:05PM 27.6690 -82.4060 162° South 443 510 39,000  Level FlightAware
09:06PM 27.5920 -82.3770 162° South 443 510 39,000  Level FlightAware
09:07PM 27.5120 -82.3480 162° South 443 510 39,000 -180 Level FlightAware
09:08PM 27.4240 -82.3160 162° South 441 507 38,800 -600 Descending FlightAware
09:08PM 27.3500 -82.2890 162° South 445 512 38,200 -960 Descending FlightAware
09:09PM 27.2610 -82.2560 162° South 449 517 37,500 -1,020 Descending FlightAware
09:10PM 27.1800 -82.2250 161° South 457 526 36,800 -1,440 Descending FlightAware
09:10PM 27.1270 -82.1890 149° Southeast 467 537 35,700 -2,880 Descending FlightAware
09:11PM 27.0340 -82.0950 138° Southeast 479 551 32,800 -3,360 Descending FlightAware
09:12PM 26.9710 -82.0300 137° Southeast 477 549 30,700 -2,940 Descending FlightAware
09:12PM 26.9000 -81.9560 137° Southeast 470 541 28,700 -2,640 Descending FlightAware
09:13PM 26.8400 -81.8930 137° Southeast 461 531 27,000 -2,580 Descending FlightAware
09:14PM 26.7750 -81.8270 138° Southeast 444 511 25,300 -2,460 Descending FlightAware
09:15PM 26.6840 -81.7340 138° Southeast 433 498 22,900 -2,040 Descending FlightAware
09:16PM 26.6150 -81.6630 137° Southeast 420 483 21,000 -1,800 Descending FlightAware
09:17PM 26.5660 -81.6140 138° Southeast 412 474 19,700 -2,040 Descending FlightAware
09:17PM 26.5100 -81.5560 137° Southeast 401 461 18,300 -2,280 Descending FlightAware
09:18PM 26.4480 -81.4930 138° Southeast 391 450 16,500 -2,400 Descending FlightAware
09:19PM 26.3850 -81.4280 137° Southeast 379 436 14,700 -1,980 Descending FlightAware
09:19PM 26.3510 -81.3940 138° Southeast 375 432 13,700 -1,200 Descending FlightAware
09:20PM 26.3070 -81.3490 137° Southeast 374 430 13,200 -360 Descending FlightAware
09:21PM 26.2530 -81.2930 137° Southeast 374 430 13,200  Level FlightAware
09:22PM 26.2100 -81.2480 137° Southeast 374 430 13,200 -3,300 Level FlightAware
09:22PM 26.2000 -81.1440 96° East 296 341 10,200 -4,560 Descending FlightAware
09:22PM 26.1800 -81.1070 121° Southeast 293 337 9,800 -960 Descending FlightAware
09:23PM 26.1670 -81.0810 119° Southeast 290 334 9,400 -480 Descending FlightAware
09:23PM 26.1450 -81.0410 121° Southeast 290 334 9,400  Level FlightAware
09:24PM 26.1280 -81.0080 120° Southeast 290 334 9,400 -2,100 Level FlightAware
09:24PM 26.1240 -80.9820 100° East 278 320 8,000 -2,400 Descending FlightAware
09:24PM 26.1210 -80.9500 96° East 278 320 8,000 -1,200 Level FlightAware
09:25PM 26.1160 -80.8740 94° East 270 311 6,500 -1,200 Descending FlightAware
09:26PM 26.1140 -80.8430 94° East 270 311 6,500 -180 Level FlightAware
09:27PM 26.1040 -80.7170 95° East 6,000 -240 Descending FlightAware
09:28PM 26.1000 -80.6640 95° East 244 281 6,000 -540 Level FlightAware
09:30PM 26.0910 -80.5490 95° East 232 267 4,900 -780 Descending FlightAware
09:31PM 26.0850 -80.4700 95° East 203 234 4,000 -720 Descending FlightAware
09:32PM 26.0790 -80.3930 95° East 180 207 3,200 -540 Descending FlightAware
09:33PM 26.0780 -80.3270 91° East 180 207 2,700 -660 Descending FlightAware
09:34PM 26.0770 -80.2650 91° East 157 181 1,700 -840 Descending FlightAware
09:36PM 26.0770 -80.2080 90° East 146 168 700 -720 Descending FlightAware
09:36PM 26.0770 -80.1690 90° East 147 169 300 -480 Descending FlightAware